Atlantic Island — C4VM2 — position and weather

sailwx.info

Track history (hours):
 
Tides and Currents Weather Stations Pressure Air Temp Water Temp Dewpoint Dewpoint Depression Visibility Wind Speed Wind Dir Waves Ship Positions

Atlantic Island

Last reported at 2017-Aug-16 18:12 UTC. Time now 2017-Aug-18 03:04 UTC.
Position N 40°48' W 008°52'.

Length 95 m; draft 3.7 m.

Type: Cargo ship. MMSI: 210754000.

Date/timePositionNaut miles runAvg speedWind from/ knotsBaromVisibWave heightAir tempDewpointWater temp
2017-Aug-16 18:12N 40°48' W 008°52'210.3
2017-Aug-16 17:58N 40°46' W 008°51'610.3
2017-Aug-16 17:22N 40°40' W 008°49'  
2017-Aug-12 13:57N 40°38' W 008°46'1 2.7
2017-Aug-12 13:30N 40°39' W 008°48'0 1.0
2017-Aug-12 13:00N 40°39' W 008°48'3 4.9
2017-Aug-12 12:30N 40°37' W 008°49'3 6.6
2017-Aug-12 12:00N 40°34' W 008°52'3 7.1
2017-Aug-12 11:30N 40°31' W 008°54'3 7.1
2017-Aug-12 11:00N 40°28' W 008°57'3 6.9
2017-Aug-12 10:30N 40°25' W 008°59'3 6.9
2017-Aug-12 10:00N 40°22' W 009°01'3 6.9
2017-Aug-12 09:30N 40°19' W 009°04'4 7.8
2017-Aug-12 09:00N 40°16' W 009°06'4 8.0
2017-Aug-12 08:30N 40°12' W 009°09'4 7.9
2017-Aug-12 08:00N 40°09' W 009°12'4 7.9
2017-Aug-12 07:30N 40°06' W 009°15'4 7.8
2017-Aug-12 07:00N 40°02' W 009°17'4 8.0
2017-Aug-12 06:30N 39°59' W 009°20'4 7.8
2017-Aug-12 06:00N 39°55' W 009°23'4 7.6
2017-Aug-12 05:30N 39°52' W 009°25'4 7.8
2017-Aug-12 05:01N 39°49' W 009°28'4 7.7
2017-Aug-12 04:30N 39°46' W 009°30'4 7.8
2017-Aug-12 03:59N 39°42' W 009°33'4 7.9
2017-Aug-12 03:30N 39°39' W 009°36'5 8.2
2017-Aug-12 02:55N 39°35' W 009°39'3 8.3
2017-Aug-12 02:31N 39°32' W 009°41'4 8.0
2017-Aug-12 02:00N 39°28' W 009°43'4 8.1
2017-Aug-12 01:30N 39°24' W 009°44'4 7.8
2017-Aug-12 01:00N 39°20' W 009°45'4 7.8
2017-Aug-12 00:30N 39°17' W 009°46'4 7.6
2017-Aug-12 00:01N 39°13' W 009°47'4 8.1
2017-Aug-11 23:31N 39°09' W 009°47'4 7.9
2017-Aug-11 23:00N 39°05' W 009°48'4 7.9
2017-Aug-11 22:30N 39°01' W 009°48'4 8.1
2017-Aug-11 22:00N 38°57' W 009°49'4 8.0
2017-Aug-11 21:31N 38°53' W 009°50'4 7.9
2017-Aug-11 21:01N 38°49' W 009°50'4 7.8
2017-Aug-11 20:31N 38°45' W 009°51'4 7.6
2017-Aug-11 20:01N 38°41' W 009°51'4 7.7
2017-Aug-11 19:30N 38°38' W 009°50'4 7.9
2017-Aug-11 19:00N 38°34' W 009°49'4 7.8
2017-Aug-11 18:30N 38°30' W 009°47'4 8.0
2017-Aug-11 18:01N 38°26' W 009°46'4 8.1
2017-Aug-11 17:31N 38°22' W 009°45'4 7.6
2017-Aug-11 17:00N 38°18' W 009°44'4 7.5
2017-Aug-11 16:30N 38°15' W 009°43'4 7.9
2017-Aug-11 16:00N 38°11' W 009°42'4 7.7
2017-Aug-11 15:30N 38°07' W 009°41'4 7.7
2017-Aug-11 15:00N 38°03' W 009°39'4 8.0
2017-Aug-11 14:30N 37°60' W 009°38'8 8.4
2017-Aug-11 13:31N 37°51' W 009°36'4 8.7
2017-Aug-11 13:01N 37°47' W 009°34'4 8.6
2017-Aug-11 12:30N 37°43' W 009°33'4 8.2
2017-Aug-11 12:00N 37°39' W 009°33'4 7.9
2017-Aug-11 11:30N 37°35' W 009°31'4 8.4
2017-Aug-11 11:00N 37°31' W 009°30'5 9.1
2017-Aug-11 10:31N 37°26' W 009°29'5 9.2
2017-Aug-11 10:01N 37°22' W 009°28'5 9.0
2017-Aug-11 09:30N 37°18' W 009°26'5 9.1
2017-Aug-11 09:00N 37°13' W 009°24'19 9.2
2017-Aug-11 06:58N 36°55' W 009°19'9 9.2
2017-Aug-11 06:02N 36°48' W 009°13'1 9.4
2017-Aug-11 05:56N 36°47' W 009°12'21 9.0
2017-Aug-11 03:37N 36°45' W 008°46'2 9.8
2017-Aug-11 03:22N 36°45' W 008°43'410.1
2017-Aug-11 03:00N 36°46' W 008°39'510.4
2017-Aug-11 02:30N 36°47' W 008°32'510.2
2017-Aug-11 02:00N 36°48' W 008°26'510.0
2017-Aug-11 01:30N 36°49' W 008°20'510.3
2017-Aug-11 01:00N 36°50' W 008°14'510.4
2017-Aug-11 00:31N 36°52' W 008°07'510.6
2017-Aug-11 00:00N 36°53' W 008°01'510.5
2017-Aug-10 23:30N 36°54' W 007°54'  
2017-Aug-08 01:51N 35°59' W 006°58'410.0
2017-Aug-08 01:28N 35°55' W 006°59'5 9.9
2017-Aug-08 01:00N 35°51' W 007°01'510.0
2017-Aug-08 00:28N 35°46' W 007°02'510.1
2017-Aug-07 23:56N 35°41' W 007°04'410.1
2017-Aug-07 23:30N 35°36' W 007°05'510.3
2017-Aug-07 23:00N 35°31' W 007°06'510.3
2017-Aug-07 22:30N 35°26' W 007°07'510.4
2017-Aug-07 22:00N 35°21' W 007°09'510.4
2017-Aug-07 21:29N 35°16' W 007°10'2010.2
2017-Aug-07 19:30N 34°56' W 007°16'23 9.8
2017-Aug-07 17:07N 34°33' W 007°22'2 9.7
2017-Aug-07 16:56N 34°32' W 007°22'5 9.9
2017-Aug-07 16:26N 34°27' W 007°23'410.1
2017-Aug-07 16:00N 34°22' W 007°24'14 9.8
2017-Aug-07 14:36N 34°09' W 007°27'1 9.6
2017-Aug-07 14:30N 34°08' W 007°28'5 9.6
2017-Aug-07 14:00N 34°03' W 007°29'5 9.8
2017-Aug-07 13:30N 33°58' W 007°30'  
Track history (hours):
 
Tides and Currents Weather Stations Pressure Air Temp Water Temp Dewpoint Dewpoint Depression Visibility Wind Speed Wind Dir Waves Ship Positions

Atlantic Island

Last reported at 2017-Aug-16 18:12 UTC. Time now 2017-Aug-18 03:04 UTC.
Position N 40°48' W 008°52'.

Length 95 m; draft 3.7 m.

Type: Cargo ship. MMSI: 210754000.

Date/timePositionNaut miles runAvg speedWind from/ knotsBaromVisibWave heightAir tempDewpointWater temp
2017-Aug-16 18:12N 40°48' W 008°52'210.3
2017-Aug-16 17:58N 40°46' W 008°51'610.3
2017-Aug-16 17:22N 40°40' W 008°49'  
2017-Aug-12 13:57N 40°38' W 008°46'1 2.7
2017-Aug-12 13:30N 40°39' W 008°48'0 1.0
2017-Aug-12 13:00N 40°39' W 008°48'3 4.9
2017-Aug-12 12:30N 40°37' W 008°49'3 6.6
2017-Aug-12 12:00N 40°34' W 008°52'3 7.1
2017-Aug-12 11:30N 40°31' W 008°54'3 7.1
2017-Aug-12 11:00N 40°28' W 008°57'3 6.9
2017-Aug-12 10:30N 40°25' W 008°59'3 6.9
2017-Aug-12 10:00N 40°22' W 009°01'3 6.9
2017-Aug-12 09:30N 40°19' W 009°04'4 7.8
2017-Aug-12 09:00N 40°16' W 009°06'4 8.0
2017-Aug-12 08:30N 40°12' W 009°09'4 7.9
2017-Aug-12 08:00N 40°09' W 009°12'4 7.9
2017-Aug-12 07:30N 40°06' W 009°15'4 7.8
2017-Aug-12 07:00N 40°02' W 009°17'4 8.0
2017-Aug-12 06:30N 39°59' W 009°20'4 7.8
2017-Aug-12 06:00N 39°55' W 009°23'4 7.6
2017-Aug-12 05:30N 39°52' W 009°25'4 7.8
2017-Aug-12 05:01N 39°49' W 009°28'4 7.7
2017-Aug-12 04:30N 39°46' W 009°30'4 7.8
2017-Aug-12 03:59N 39°42' W 009°33'4 7.9
2017-Aug-12 03:30N 39°39' W 009°36'5 8.2
2017-Aug-12 02:55N 39°35' W 009°39'3 8.3
2017-Aug-12 02:31N 39°32' W 009°41'4 8.0
2017-Aug-12 02:00N 39°28' W 009°43'4 8.1
2017-Aug-12 01:30N 39°24' W 009°44'4 7.8
2017-Aug-12 01:00N 39°20' W 009°45'4 7.8
2017-Aug-12 00:30N 39°17' W 009°46'4 7.6
2017-Aug-12 00:01N 39°13' W 009°47'4 8.1
2017-Aug-11 23:31N 39°09' W 009°47'4 7.9
2017-Aug-11 23:00N 39°05' W 009°48'4 7.9
2017-Aug-11 22:30N 39°01' W 009°48'4 8.1
2017-Aug-11 22:00N 38°57' W 009°49'4 8.0
2017-Aug-11 21:31N 38°53' W 009°50'4 7.9
2017-Aug-11 21:01N 38°49' W 009°50'4 7.8
2017-Aug-11 20:31N 38°45' W 009°51'4 7.6
2017-Aug-11 20:01N 38°41' W 009°51'4 7.7
2017-Aug-11 19:30N 38°38' W 009°50'4 7.9
2017-Aug-11 19:00N 38°34' W 009°49'4 7.8
2017-Aug-11 18:30N 38°30' W 009°47'4 8.0
2017-Aug-11 18:01N 38°26' W 009°46'4 8.1
2017-Aug-11 17:31N 38°22' W 009°45'4 7.6
2017-Aug-11 17:00N 38°18' W 009°44'4 7.5
2017-Aug-11 16:30N 38°15' W 009°43'4 7.9
2017-Aug-11 16:00N 38°11' W 009°42'4 7.7
2017-Aug-11 15:30N 38°07' W 009°41'4 7.7
2017-Aug-11 15:00N 38°03' W 009°39'4 8.0
2017-Aug-11 14:30N 37°60' W 009°38'8 8.4
2017-Aug-11 13:31N 37°51' W 009°36'4 8.7
2017-Aug-11 13:01N 37°47' W 009°34'4 8.6
2017-Aug-11 12:30N 37°43' W 009°33'4 8.2
2017-Aug-11 12:00N 37°39' W 009°33'4 7.9
2017-Aug-11 11:30N 37°35' W 009°31'4 8.4
2017-Aug-11 11:00N 37°31' W 009°30'5 9.1
2017-Aug-11 10:31N 37°26' W 009°29'5 9.2
2017-Aug-11 10:01N 37°22' W 009°28'5 9.0
2017-Aug-11 09:30N 37°18' W 009°26'5 9.1
2017-Aug-11 09:00N 37°13' W 009°24'19 9.2
2017-Aug-11 06:58N 36°55' W 009°19'9 9.2
2017-Aug-11 06:02N 36°48' W 009°13'1 9.4
2017-Aug-11 05:56N 36°47' W 009°12'21 9.0
2017-Aug-11 03:37N 36°45' W 008°46'2 9.8
2017-Aug-11 03:22N 36°45' W 008°43'410.1
2017-Aug-11 03:00N 36°46' W 008°39'510.4
2017-Aug-11 02:30N 36°47' W 008°32'510.2
2017-Aug-11 02:00N 36°48' W 008°26'510.0
2017-Aug-11 01:30N 36°49' W 008°20'510.3
2017-Aug-11 01:00N 36°50' W 008°14'510.4
2017-Aug-11 00:31N 36°52' W 008°07'510.6
2017-Aug-11 00:00N 36°53' W 008°01'510.5
2017-Aug-10 23:30N 36°54' W 007°54'  
2017-Aug-08 01:51N 35°59' W 006°58'410.0
2017-Aug-08 01:28N 35°55' W 006°59'5 9.9
2017-Aug-08 01:00N 35°51' W 007°01'510.0
2017-Aug-08 00:28N 35°46' W 007°02'510.1
2017-Aug-07 23:56N 35°41' W 007°04'410.1
2017-Aug-07 23:30N 35°36' W 007°05'510.3
2017-Aug-07 23:00N 35°31' W 007°06'510.3
2017-Aug-07 22:30N 35°26' W 007°07'510.4
2017-Aug-07 22:00N 35°21' W 007°09'510.4
2017-Aug-07 21:29N 35°16' W 007°10'2010.2
2017-Aug-07 19:30N 34°56' W 007°16'23 9.8
2017-Aug-07 17:07N 34°33' W 007°22'2 9.7
2017-Aug-07 16:56N 34°32' W 007°22'5 9.9
2017-Aug-07 16:26N 34°27' W 007°23'410.1
2017-Aug-07 16:00N 34°22' W 007°24'14 9.8
2017-Aug-07 14:36N 34°09' W 007°27'1 9.6
2017-Aug-07 14:30N 34°08' W 007°28'5 9.6
2017-Aug-07 14:00N 34°03' W 007°29'5 9.8
2017-Aug-07 13:30N 33°58' W 007°30'  

Dump ship's entire track history